KIWD

Gogebic-Iron County Airport

Ironwood, Michigan, USA
METAR KIWD 211956Z AUTO 01004KT 10SM CLR 02/M02 A2996 RMK AO2 SLP162 T00221022 FZRANO
Observed Flight Rules
Jan-21 @ 19:56 UTC (35 minutes ago) Visual Flight Rules
Wind Visibility Clouds
10° at 4 knots 10 miles
  • Clear skies
Temperatures Readings
Current 2°C / 36°F
Dewpoint -2°C / 28°F
Humidity 75%
Altimeter 29.96" Hg
Pressure 1016.2 hPa
Elevation 375
METAR KIWD 211956Z AUTO 01004KT 10SM CLR 02/M02 A2996 RMK AO2 SLP162 T00221022 FZRANO
Observed Flight Rules
Jan-21 @ 19:56 UTC
(35 minutes ago)
VFR
Wind Visibility
10° at 4 knots 10 miles
Clouds
  • Clear skies
Temperature Dewpoint
2°C / 36°F -2°C / 28°F
Humidity Altimeter Pressure
75% 29.96" Hg 1016.2 hPa